createdAt,value
2023-04-19T00:00:50.893Z,19.31
2023-04-19T00:03:18.492Z,19.31
2023-04-19T00:05:46.221Z,19.31
2023-04-19T00:08:13.449Z,19.32
2023-04-19T00:10:40.755Z,19.30
2023-04-19T00:13:08.090Z,19.30
2023-04-19T00:15:35.450Z,19.30
2023-04-19T00:18:02.969Z,19.30
2023-04-19T00:20:30.284Z,19.29
2023-04-19T00:22:59.158Z,19.31
2023-04-19T00:25:26.834Z,19.30
2023-04-19T00:27:54.227Z,19.30
2023-04-19T00:30:21.598Z,19.30
2023-04-19T00:32:49.046Z,19.30
2023-04-19T00:35:17.321Z,19.29
2023-04-19T00:37:44.639Z,19.29
2023-04-19T00:40:14.151Z,19.29
2023-04-19T00:42:42.092Z,19.29
2023-04-19T00:45:09.936Z,19.28
2023-04-19T00:47:38.250Z,19.29
2023-04-19T00:50:06.582Z,19.28
2023-04-19T00:52:34.560Z,19.28
2023-04-19T00:55:02.220Z,19.28
2023-04-19T00:57:30.155Z,19.30
2023-04-19T00:59:58.320Z,19.27
2023-04-19T01:02:26.056Z,19.29
2023-04-19T01:04:53.426Z,19.28
2023-04-19T01:07:20.779Z,19.27
2023-04-19T01:09:48.057Z,19.28
2023-04-19T01:12:15.404Z,19.28
2023-04-19T01:14:44.238Z,19.27
2023-04-19T01:17:13.503Z,19.28
2023-04-19T01:19:41.026Z,19.27
2023-04-19T01:22:09.366Z,19.27
2023-04-19T01:24:36.972Z,19.28
2023-04-19T01:27:04.249Z,19.28
2023-04-19T01:29:31.516Z,19.27
2023-04-19T01:31:58.744Z,19.27
2023-04-19T01:34:27.566Z,19.27
2023-04-19T01:36:54.852Z,19.26
2023-04-19T01:39:22.178Z,19.28
2023-04-19T01:41:49.374Z,19.26
2023-04-19T01:44:16.735Z,19.28
2023-04-19T01:46:44.334Z,19.26
2023-04-19T01:49:13.252Z,19.26
2023-04-19T01:51:43.280Z,19.26
2023-04-19T01:54:10.760Z,19.27
2023-04-19T01:56:38.035Z,19.26
2023-04-19T01:59:05.367Z,19.27
2023-04-19T02:01:32.797Z,19.27
2023-04-19T02:04:00.369Z,19.26
2023-04-19T02:06:27.772Z,19.27
2023-04-19T02:08:55.503Z,19.26
2023-04-19T02:11:22.750Z,19.26
2023-04-19T02:13:50.011Z,19.26
2023-04-19T02:16:17.302Z,19.26
2023-04-19T02:18:46.944Z,19.27
2023-04-19T02:21:14.329Z,19.26
2023-04-19T02:23:41.603Z,19.26
2023-04-19T02:26:10.470Z,19.26
2023-04-19T02:28:39.203Z,19.26
2023-04-19T02:31:06.988Z,19.25
2023-04-19T02:33:36.372Z,19.25
2023-04-19T02:36:04.117Z,19.26
2023-04-19T02:38:31.402Z,19.24
2023-04-19T02:40:58.659Z,19.25
2023-04-19T02:43:26.186Z,19.25
2023-04-19T02:45:53.660Z,19.25
2023-04-19T02:48:22.020Z,19.24
2023-04-19T02:50:49.463Z,19.23
2023-04-19T02:53:17.172Z,19.25
2023-04-19T02:55:44.819Z,19.24
2023-04-19T02:58:17.025Z,19.24
2023-04-19T03:00:57.627Z,19.24
2023-04-19T03:03:25.232Z,19.23
2023-04-19T03:05:53.079Z,19.24
2023-04-19T03:08:20.575Z,19.23
2023-04-19T03:10:47.857Z,19.23
2023-04-19T03:13:15.154Z,19.23
2023-04-19T03:15:42.756Z,19.22
2023-04-19T03:18:10.933Z,19.23
2023-04-19T03:20:40.582Z,19.23
2023-04-19T03:23:07.929Z,19.23
2023-04-19T03:25:35.496Z,19.23
2023-04-19T03:28:28.858Z,19.22
2023-04-19T03:31:31.586Z,19.23
2023-04-19T03:34:00.003Z,19.23
2023-04-19T03:36:33.281Z,19.22
2023-04-19T03:39:00.602Z,19.23
2023-04-19T03:41:28.088Z,19.22
2023-04-19T03:44:17.465Z,19.22
2023-04-19T03:46:46.728Z,19.22
2023-04-19T03:49:16.211Z,19.21
2023-04-19T03:51:47.111Z,19.22
2023-04-19T03:54:14.684Z,19.21
2023-04-19T03:56:42.189Z,19.21
2023-04-19T03:59:09.878Z,19.22
2023-04-19T04:01:42.154Z,19.21
2023-04-19T04:04:10.107Z,19.21
2023-04-19T04:06:37.803Z,19.21
2023-04-19T04:09:05.422Z,19.21
2023-04-19T04:11:32.702Z,19.22
2023-04-19T04:14:00.073Z,19.21
2023-04-19T04:16:30.114Z,19.22
2023-04-19T04:18:57.781Z,19.22
2023-04-19T04:21:27.436Z,19.22
2023-04-19T04:23:57.360Z,19.23
2023-04-19T04:26:34.088Z,19.22
2023-04-19T04:29:19.810Z,19.22
2023-04-19T04:31:47.372Z,19.22
2023-04-19T04:34:18.265Z,19.22
2023-04-19T04:36:51.877Z,19.21
2023-04-19T04:39:21.362Z,19.21
2023-04-19T04:41:49.684Z,19.20
2023-04-19T04:44:17.089Z,19.21
2023-04-19T04:46:46.739Z,19.21
2023-04-19T04:49:19.131Z,19.20
2023-04-19T04:51:46.412Z,19.20
2023-04-19T04:54:14.254Z,19.20
2023-04-19T04:56:42.197Z,19.20
2023-04-19T04:59:11.337Z,19.20
2023-04-19T05:01:42.351Z,19.20
2023-04-19T05:04:10.125Z,19.20
2023-04-19T05:06:40.772Z,19.20
2023-04-19T05:09:10.008Z,19.20
2023-04-19T05:11:37.563Z,19.20
2023-04-19T05:14:05.633Z,19.19
2023-04-19T05:16:34.275Z,19.20
2023-04-19T05:19:01.681Z,19.20
2023-04-19T05:21:36.112Z,19.19
2023-04-19T05:24:05.924Z,19.19
2023-04-19T05:26:35.567Z,19.20
2023-04-19T05:29:04.674Z,19.19
2023-04-19T05:31:40.549Z,19.19
2023-04-19T05:34:42.946Z,19.19
2023-04-19T05:37:13.921Z,19.19
2023-04-19T05:39:44.126Z,19.19
2023-04-19T05:42:12.013Z,19.20
2023-04-19T05:44:39.236Z,19.19
2023-04-19T05:47:07.056Z,19.19
2023-04-19T05:50:06.893Z,19.20
2023-04-19T05:52:46.438Z,19.19
2023-04-19T05:55:14.369Z,19.19
2023-04-19T05:57:44.970Z,19.20
2023-04-19T06:00:13.463Z,19.20
2023-04-19T06:02:40.920Z,19.19
2023-04-19T06:05:12.377Z,19.20
2023-04-19T06:07:43.989Z,19.20
2023-04-19T06:10:21.769Z,19.19
2023-04-19T06:12:49.094Z,19.20
2023-04-19T06:15:16.725Z,19.21
2023-04-19T06:17:45.886Z,19.21
2023-04-19T06:20:14.224Z,19.21
2023-04-19T06:22:48.673Z,19.22
2023-04-19T06:25:15.914Z,19.22
2023-04-19T06:27:43.202Z,19.23
2023-04-19T06:30:10.733Z,19.24
2023-04-19T06:32:38.201Z,19.23
2023-04-19T06:35:06.565Z,19.23
2023-04-19T06:37:34.293Z,19.23
2023-04-19T06:40:01.710Z,19.23
2023-04-19T06:42:29.537Z,19.23
2023-04-19T06:44:59.558Z,19.23
2023-04-19T06:47:27.041Z,19.22
2023-04-19T06:49:54.307Z,19.23
2023-04-19T06:52:22.170Z,19.23
2023-04-19T06:54:50.128Z,19.23
2023-04-19T06:57:18.358Z,19.24
2023-04-19T06:59:45.867Z,19.24
2023-04-19T07:02:13.299Z,19.24
2023-04-19T07:04:40.930Z,19.25
2023-04-19T07:07:08.278Z,19.25
2023-04-19T07:09:35.662Z,19.26
2023-04-19T07:12:03.061Z,19.25
2023-04-19T07:14:30.403Z,19.26
2023-04-19T07:16:57.936Z,19.27
2023-04-19T07:19:25.419Z,19.28
2023-04-19T07:21:52.724Z,19.30
2023-04-19T07:24:19.928Z,19.30
2023-04-19T07:26:47.146Z,19.31
2023-04-19T07:29:14.527Z,19.32
2023-04-19T07:31:42.095Z,19.34
2023-04-19T07:34:09.461Z,19.36
2023-04-19T07:36:37.967Z,19.36
2023-04-19T07:39:05.528Z,19.39
2023-04-19T07:41:33.064Z,19.40
2023-04-19T07:44:00.424Z,19.40
2023-04-19T07:46:27.783Z,19.40
2023-04-19T07:48:55.027Z,19.41
2023-04-19T07:51:24.618Z,19.43
2023-04-19T07:53:51.910Z,19.46
2023-04-19T07:56:20.195Z,19.48
2023-04-19T07:58:56.469Z,19.48
2023-04-19T08:01:30.739Z,19.48
2023-04-19T08:04:00.171Z,19.49
2023-04-19T08:06:27.797Z,19.50
2023-04-19T08:08:55.105Z,19.51
2023-04-19T08:11:22.550Z,19.53
2023-04-19T08:14:02.648Z,19.54
2023-04-19T08:19:06.688Z,19.56
2023-04-19T08:21:40.688Z,19.56
2023-04-19T08:24:08.939Z,19.57
2023-04-19T08:26:36.165Z,19.58
2023-04-19T08:29:03.496Z,19.58
2023-04-19T08:31:31.289Z,19.59
2023-04-19T08:34:00.326Z,19.62
2023-04-19T08:36:37.587Z,19.62
2023-04-19T08:39:17.695Z,19.62
2023-04-19T08:41:56.114Z,19.64
2023-04-19T08:44:36.469Z,19.65
2023-04-19T08:47:05.719Z,19.66
2023-04-19T08:49:41.396Z,19.65
2023-04-19T08:52:13.372Z,19.64
2023-04-19T08:54:42.608Z,19.63
2023-04-19T08:57:09.920Z,19.63
2023-04-19T08:59:37.189Z,19.62
2023-04-19T09:02:04.634Z,19.64
2023-04-19T09:04:37.011Z,19.63
2023-04-19T09:07:05.152Z,19.62
2023-04-19T09:09:39.121Z,19.63
2023-04-19T09:12:18.013Z,19.64
2023-04-19T09:17:17.770Z,19.64
2023-04-19T09:19:49.928Z,19.65
2023-04-19T09:22:18.765Z,19.66
2023-04-19T09:27:37.360Z,19.67
2023-04-19T09:30:05.572Z,19.67
2023-04-19T09:32:47.452Z,19.68
2023-04-19T09:35:14.995Z,19.67
2023-04-19T09:40:22.943Z,19.68
2023-04-19T09:45:30.095Z,19.67
2023-04-19T09:48:07.735Z,19.67
2023-04-19T09:50:46.739Z,19.68
2023-04-19T09:53:24.598Z,19.69
2023-04-19T09:56:01.404Z,19.70
2023-04-19T09:58:41.587Z,19.70
2023-04-19T10:01:16.186Z,19.70
2023-04-19T10:03:49.968Z,19.72
2023-04-19T10:08:53.806Z,19.73
2023-04-19T10:11:26.764Z,19.73
2023-04-19T10:13:57.485Z,19.74
2023-04-19T10:16:25.452Z,19.73
2023-04-19T10:18:55.312Z,19.74
2023-04-19T10:21:23.644Z,19.75
2023-04-19T10:23:51.326Z,19.75
2023-04-19T10:26:18.594Z,19.75
2023-04-19T10:28:48.098Z,19.75
2023-04-19T10:31:15.363Z,19.76
2023-04-19T10:33:42.606Z,19.74
2023-04-19T10:36:11.679Z,19.73
2023-04-19T10:38:49.598Z,19.72
2023-04-19T10:41:21.784Z,19.73
2023-04-19T10:43:55.206Z,19.71
2023-04-19T10:46:23.052Z,19.72
2023-04-19T10:48:55.379Z,19.70
2023-04-19T10:51:41.960Z,19.69
2023-04-19T10:54:28.645Z,19.70
2023-04-19T10:57:02.910Z,19.69
2023-04-19T10:59:44.377Z,19.69
2023-04-19T11:02:24.906Z,19.71
2023-04-19T11:04:52.432Z,19.69
2023-04-19T11:07:21.479Z,19.70
2023-04-19T11:09:49.852Z,19.70
2023-04-19T11:12:19.326Z,19.70
2023-04-19T11:14:51.100Z,19.70
2023-04-19T11:17:18.465Z,19.70
2023-04-19T11:19:55.032Z,19.70
2023-04-19T11:22:30.113Z,19.70
2023-04-19T11:24:57.537Z,19.69
2023-04-19T11:27:25.708Z,19.70
2023-04-19T11:29:52.970Z,19.69
2023-04-19T11:32:21.602Z,19.69
2023-04-19T11:34:48.907Z,19.70
2023-04-19T11:37:16.268Z,19.69
2023-04-19T11:39:49.921Z,19.69
2023-04-19T11:42:20.719Z,19.69
2023-04-19T11:44:53.814Z,19.68
2023-04-19T11:47:21.234Z,19.68
2023-04-19T11:49:48.539Z,19.68
2023-04-19T11:52:26.540Z,19.69
2023-04-19T11:54:54.280Z,19.69
2023-04-19T11:57:31.404Z,19.70
2023-04-19T12:00:07.395Z,19.69
2023-04-19T12:02:43.555Z,19.70
2023-04-19T12:05:15.950Z,19.69
2023-04-19T12:08:02.440Z,19.70
2023-04-19T12:10:31.433Z,19.69
2023-04-19T12:12:59.446Z,19.69
2023-04-19T12:15:43.164Z,19.68
2023-04-19T12:18:10.885Z,19.68
2023-04-19T12:20:43.595Z,19.70
2023-04-19T12:23:16.747Z,19.69
2023-04-19T12:25:46.484Z,19.70
2023-04-19T12:28:15.766Z,19.70
2023-04-19T12:30:43.388Z,19.70
2023-04-19T12:33:10.991Z,19.70
2023-04-19T12:35:39.203Z,19.69
2023-04-19T12:38:06.541Z,19.69
2023-04-19T12:40:34.380Z,19.70
2023-04-19T12:43:01.709Z,19.70
2023-04-19T12:45:29.046Z,19.70
2023-04-19T12:47:57.134Z,19.70
2023-04-19T12:50:24.429Z,19.70
2023-04-19T12:52:53.697Z,19.71
2023-04-19T12:55:21.044Z,19.70
2023-04-19T12:57:48.346Z,19.70
2023-04-19T13:00:15.966Z,19.70
2023-04-19T13:02:43.511Z,19.70
2023-04-19T13:05:12.968Z,19.69
2023-04-19T13:07:40.704Z,19.70
2023-04-19T13:10:08.550Z,19.70
2023-04-19T13:12:36.655Z,19.72
2023-04-19T13:15:05.979Z,19.71
2023-04-19T13:17:33.194Z,19.71
2023-04-19T13:20:00.604Z,19.72
2023-04-19T13:22:28.030Z,19.70
2023-04-19T13:24:58.797Z,19.71
2023-04-19T13:27:26.248Z,19.72
2023-04-19T13:29:56.784Z,19.72
2023-04-19T13:32:24.242Z,19.72
2023-04-19T13:34:51.544Z,19.72
2023-04-19T13:37:18.879Z,19.72
2023-04-19T13:39:46.243Z,19.72
2023-04-19T13:42:14.276Z,19.73
2023-04-19T13:44:41.562Z,19.72
2023-04-19T13:47:08.954Z,19.72
2023-04-19T13:49:36.284Z,19.73
2023-04-19T13:52:03.765Z,19.72
2023-04-19T13:54:31.031Z,19.72
2023-04-19T13:56:58.831Z,19.72
2023-04-19T13:59:26.205Z,19.73
2023-04-19T14:01:56.037Z,19.72
2023-04-19T14:04:23.885Z,19.72
2023-04-19T14:06:51.793Z,19.72
2023-04-19T14:09:19.155Z,19.72
2023-04-19T14:11:47.188Z,19.73
2023-04-19T14:14:14.736Z,19.72
2023-04-19T14:16:42.173Z,19.72
2023-04-19T14:19:09.455Z,19.74
2023-04-19T14:21:36.724Z,19.73
2023-04-19T14:24:04.401Z,19.73
2023-04-19T14:26:31.770Z,19.74
2023-04-19T14:28:59.035Z,19.74
2023-04-19T14:31:26.376Z,19.75
2023-04-19T14:33:53.734Z,19.75
2023-04-19T14:36:20.893Z,19.76
2023-04-19T14:38:48.161Z,19.78
2023-04-19T14:41:15.464Z,19.78
2023-04-19T14:43:42.817Z,19.78
2023-04-19T14:46:10.230Z,19.78
2023-04-19T14:48:37.641Z,19.79
2023-04-19T14:51:05.118Z,19.78
2023-04-19T14:53:33.894Z,19.78
2023-04-19T14:56:04.782Z,19.78
2023-04-19T14:58:32.177Z,19.78
2023-04-19T15:00:59.926Z,19.79
2023-04-19T15:03:27.434Z,19.79
2023-04-19T15:05:55.005Z,19.79
2023-04-19T15:08:30.175Z,19.79
2023-04-19T15:10:57.852Z,19.80
2023-04-19T15:13:26.059Z,19.79
2023-04-19T15:15:53.438Z,19.79
2023-04-19T15:18:20.822Z,19.80
2023-04-19T15:20:48.188Z,19.79
2023-04-19T15:23:15.929Z,19.80
2023-04-19T15:25:43.244Z,19.79
2023-04-19T15:28:10.601Z,19.80
2023-04-19T15:30:37.963Z,19.80
2023-04-19T15:33:05.491Z,19.79
2023-04-19T15:35:33.062Z,19.80
2023-04-19T15:38:00.554Z,19.81
2023-04-19T15:40:30.148Z,19.82
2023-04-19T15:42:57.398Z,19.83
2023-04-19T15:45:24.852Z,19.82
2023-04-19T15:47:52.101Z,19.81
2023-04-19T15:50:19.471Z,19.82
2023-04-19T15:52:46.787Z,19.82
2023-04-19T15:55:14.145Z,19.83
2023-04-19T15:57:41.309Z,19.83
2023-04-19T16:00:09.558Z,19.82
2023-04-19T16:02:40.572Z,19.82
2023-04-19T16:05:08.571Z,19.83
2023-04-19T16:07:35.845Z,19.84
2023-04-19T16:10:05.987Z,19.84
2023-04-19T16:12:33.454Z,19.86
2023-04-19T16:15:00.786Z,19.88
2023-04-19T16:17:28.400Z,19.87
2023-04-19T16:19:55.821Z,19.89
2023-04-19T16:22:23.669Z,19.90
2023-04-19T16:24:51.453Z,19.89
2023-04-19T16:27:18.731Z,19.89
2023-04-19T16:29:46.106Z,19.88
2023-04-19T16:32:13.391Z,19.87
2023-04-19T16:34:40.899Z,19.87
2023-04-19T16:37:08.162Z,19.86
2023-04-19T16:39:35.466Z,19.85
2023-04-19T16:42:02.764Z,19.86
2023-04-19T16:44:29.994Z,19.86
2023-04-19T16:46:59.700Z,19.85
2023-04-19T16:49:27.151Z,19.85
2023-04-19T16:51:54.628Z,19.86
2023-04-19T16:54:21.885Z,19.86
2023-04-19T16:56:49.129Z,19.85
2023-04-19T16:59:16.654Z,19.86
2023-04-19T17:01:47.091Z,19.87
2023-04-19T17:04:14.602Z,19.87
2023-04-19T17:06:42.256Z,19.87
2023-04-19T17:09:09.490Z,19.87
2023-04-19T17:11:36.868Z,19.87
2023-04-19T17:14:04.621Z,19.88
2023-04-19T17:16:32.038Z,19.89
2023-04-19T17:18:59.391Z,19.90
2023-04-19T17:21:27.577Z,19.90
2023-04-19T17:23:54.978Z,19.90
2023-04-19T17:26:27.854Z,19.90
2023-04-19T17:28:55.503Z,19.91
2023-04-19T17:31:23.186Z,19.91
2023-04-19T17:33:50.680Z,19.92
2023-04-19T17:36:21.590Z,19.92
2023-04-19T17:38:48.944Z,19.91
2023-04-19T17:41:19.460Z,19.92
2023-04-19T17:43:48.036Z,19.92
2023-04-19T17:46:15.611Z,19.91
2023-04-19T17:48:43.129Z,19.93
2023-04-19T17:51:10.530Z,19.93
2023-04-19T17:53:37.971Z,19.93
2023-04-19T17:56:05.398Z,19.94
2023-04-19T17:58:32.692Z,19.92
2023-04-19T18:01:00.754Z,19.93
2023-04-19T18:03:28.044Z,19.92
2023-04-19T18:05:56.138Z,19.92
2023-04-19T18:08:23.468Z,19.92
2023-04-19T18:10:51.105Z,19.93
2023-04-19T18:13:18.461Z,19.91
2023-04-19T18:15:45.751Z,19.93
2023-04-19T18:18:13.088Z,19.92
2023-04-19T18:20:40.495Z,19.93
2023-04-19T18:23:07.751Z,19.92
2023-04-19T18:25:36.816Z,19.92
2023-04-19T18:28:04.606Z,19.93
2023-04-19T18:30:31.845Z,19.92
2023-04-19T18:32:59.232Z,19.93
2023-04-19T18:35:26.602Z,19.93
2023-04-19T18:37:53.991Z,19.91
2023-04-19T18:40:21.339Z,19.92
2023-04-19T18:42:48.710Z,19.92
2023-04-19T18:45:16.161Z,19.93
2023-04-19T18:47:43.571Z,19.93
2023-04-19T18:50:12.016Z,19.93
2023-04-19T18:52:39.560Z,19.93
2023-04-19T18:55:07.467Z,19.91
2023-04-19T18:57:36.015Z,19.93
2023-04-19T19:00:06.326Z,19.92
2023-04-19T19:02:36.053Z,19.93
2023-04-19T19:05:07.442Z,19.94
2023-04-19T19:07:37.201Z,19.94
2023-04-19T19:10:18.578Z,19.93
2023-04-19T19:12:48.620Z,19.92
2023-04-19T19:15:16.459Z,19.94
2023-04-19T19:17:48.592Z,19.96
2023-04-19T19:20:16.885Z,19.96
2023-04-19T19:22:45.356Z,19.96
2023-04-19T19:25:13.179Z,19.97
2023-04-19T19:28:05.641Z,19.96
2023-04-19T19:30:40.132Z,19.97
2023-04-19T19:33:08.733Z,19.97
2023-04-19T19:35:36.729Z,19.97
2023-04-19T19:38:04.967Z,19.96
2023-04-19T19:40:34.630Z,19.97
2023-04-19T19:43:04.028Z,19.96
2023-04-19T19:45:31.888Z,19.96
2023-04-19T19:48:00.140Z,19.97
2023-04-19T19:53:02.024Z,19.97
2023-04-19T19:55:30.537Z,19.97
2023-04-19T20:02:59.643Z,19.97
2023-04-19T20:05:30.059Z,19.97
2023-04-19T20:08:13.464Z,19.96
2023-04-19T20:10:46.811Z,19.97
2023-04-19T20:13:17.034Z,19.97
2023-04-19T20:15:47.494Z,19.97
2023-04-19T20:18:15.474Z,19.97
2023-04-19T20:20:42.826Z,19.97
2023-04-19T20:23:11.323Z,19.97
2023-04-19T20:25:39.542Z,19.97
2023-04-19T20:28:07.547Z,19.96
2023-04-19T20:30:40.101Z,19.96
2023-04-19T20:33:08.770Z,19.95
2023-04-19T20:35:36.500Z,19.95
2023-04-19T20:38:04.527Z,19.93
2023-04-19T20:40:33.098Z,19.95
2023-04-19T20:43:01.559Z,19.94
2023-04-19T20:45:29.854Z,19.95
2023-04-19T20:47:58.693Z,19.94
2023-04-19T20:50:26.692Z,19.94
2023-04-19T20:52:54.749Z,19.94
2023-04-19T20:55:22.214Z,19.94
2023-04-19T20:57:49.540Z,19.94
2023-04-19T21:00:17.046Z,19.94
2023-04-19T21:02:45.116Z,19.94
2023-04-19T21:05:12.654Z,19.94
2023-04-19T21:07:40.065Z,19.94
2023-04-19T21:10:08.085Z,19.94
2023-04-19T21:12:35.306Z,19.95
2023-04-19T21:15:04.936Z,19.97
2023-04-19T21:17:32.323Z,19.95
2023-04-19T21:20:01.831Z,19.97
2023-04-19T21:22:29.320Z,19.96
2023-04-19T21:24:56.691Z,19.98
2023-04-19T21:27:23.944Z,19.97
2023-04-19T21:29:51.277Z,19.98
2023-04-19T21:32:18.574Z,19.97
2023-04-19T21:34:46.137Z,19.97
2023-04-19T21:37:13.415Z,19.97
2023-04-19T21:39:40.767Z,19.97
2023-04-19T21:42:08.116Z,19.97
2023-04-19T21:44:35.505Z,19.97
2023-04-19T21:47:02.940Z,19.97
2023-04-19T21:49:31.047Z,19.97
2023-04-19T21:51:58.356Z,19.97
2023-04-19T21:54:33.568Z,19.97
2023-04-19T21:57:02.222Z,19.97
2023-04-19T21:59:30.821Z,19.97
2023-04-19T22:01:58.859Z,19.97
2023-04-19T22:04:26.378Z,19.97
2023-04-19T22:06:53.886Z,19.98
2023-04-19T22:09:21.150Z,19.97
2023-04-19T22:11:50.338Z,19.98
2023-04-19T22:14:18.063Z,19.97
2023-04-19T22:16:47.506Z,19.98
2023-04-19T22:19:14.983Z,19.97
2023-04-19T22:21:42.360Z,19.98
2023-04-19T22:24:09.583Z,19.98
2023-04-19T22:26:36.786Z,19.97
2023-04-19T22:29:04.228Z,19.98
2023-04-19T22:31:31.686Z,19.98
2023-04-19T22:33:59.028Z,19.99
2023-04-19T22:36:26.502Z,19.98
2023-04-19T22:38:53.965Z,19.98
2023-04-19T22:41:21.137Z,19.98
2023-04-19T22:43:48.448Z,19.98
2023-04-19T22:46:15.846Z,19.97
2023-04-19T22:48:43.170Z,19.96
2023-04-19T22:51:10.757Z,19.97
2023-04-19T22:53:40.891Z,19.96
2023-04-19T22:56:08.078Z,19.95
2023-04-19T22:58:35.521Z,19.93
2023-04-19T23:01:03.147Z,19.93
2023-04-19T23:03:30.607Z,19.93
2023-04-19T23:05:58.374Z,19.93
2023-04-19T23:08:26.211Z,19.92
2023-04-19T23:10:53.794Z,19.92
2023-04-19T23:13:21.077Z,19.91
2023-04-19T23:15:48.451Z,19.91
2023-04-19T23:18:16.666Z,19.91
2023-04-19T23:20:44.065Z,19.90
2023-04-19T23:23:11.315Z,19.90
2023-04-19T23:25:38.629Z,19.89
2023-04-19T23:28:06.132Z,19.90
2023-04-19T23:30:33.427Z,19.90
2023-04-19T23:33:00.734Z,19.89
2023-04-19T23:35:28.089Z,19.89
2023-04-19T23:37:55.574Z,19.89
2023-04-19T23:40:22.910Z,19.88
2023-04-19T23:42:50.763Z,19.88
2023-04-19T23:45:18.012Z,19.87
2023-04-19T23:47:45.455Z,19.88
2023-04-19T23:50:12.822Z,19.89
2023-04-19T23:52:40.817Z,19.88
2023-04-19T23:55:08.611Z,19.88
2023-04-19T23:57:35.891Z,19.87
